sensor_id;sensor_type;location;lat;lon;timestamp;pressure;altitude;pressure_sealevel;temperature;humidity
72855;BME280;60991;51.278;22.550;2022-08-19T00:01:28;98869.63;;;23.32;68.43
72855;BME280;60991;51.278;22.550;2022-08-19T00:02:58;98876.97;;;23.31;68.83
72855;BME280;60991;51.278;22.550;2022-08-19T00:04:31;98866.47;;;23.30;68.97
72855;BME280;60991;51.278;22.550;2022-08-19T00:06:02;98872.22;;;23.28;69.03
72855;BME280;60991;51.278;22.550;2022-08-19T00:07:32;98873.22;;;23.24;69.02
72855;BME280;60991;51.278;22.550;2022-08-19T00:09:05;98877.03;;;23.23;68.90
72855;BME280;60991;51.278;22.550;2022-08-19T00:10:35;98872.41;;;23.23;68.90
72855;BME280;60991;51.278;22.550;2022-08-19T00:12:06;98871.16;;;23.21;68.99
72855;BME280;60991;51.278;22.550;2022-08-19T00:13:36;98879.97;;;23.18;69.23
72855;BME280;60991;51.278;22.550;2022-08-19T00:15:10;98881.44;;;23.15;69.33
72855;BME280;60991;51.278;22.550;2022-08-19T00:16:42;98884.94;;;23.16;69.40
72855;BME280;60991;51.278;22.550;2022-08-19T00:18:12;98889.22;;;23.17;69.37
72855;BME280;60991;51.278;22.550;2022-08-19T00:19:43;98887.31;;;23.17;69.48
72855;BME280;60991;51.278;22.550;2022-08-19T00:21:13;98891.59;;;23.18;69.46
72855;BME280;60991;51.278;22.550;2022-08-19T00:22:45;98888.88;;;23.18;69.53
72855;BME280;60991;51.278;22.550;2022-08-19T00:24:16;98892.41;;;23.19;69.01
72855;BME280;60991;51.278;22.550;2022-08-19T00:25:46;98895.09;;;23.19;69.23
72855;BME280;60991;51.278;22.550;2022-08-19T00:27:17;98897.44;;;23.20;69.43
72855;BME280;60991;51.278;22.550;2022-08-19T00:28:47;98899.38;;;23.20;69.46
72855;BME280;60991;51.278;22.550;2022-08-19T00:30:17;98901.31;;;23.19;69.29
72855;BME280;60991;51.278;22.550;2022-08-19T00:31:48;98900.16;;;23.20;69.05
72855;BME280;60991;51.278;22.550;2022-08-19T00:33:19;98895.09;;;23.19;69.35
72855;BME280;60991;51.278;22.550;2022-08-19T00:34:49;98899.38;;;23.20;69.41
72855;BME280;60991;51.278;22.550;2022-08-19T00:36:20;98904.00;;;23.19;69.29
72855;BME280;60991;51.278;22.550;2022-08-19T00:37:50;98895.53;;;23.21;69.39
72855;BME280;60991;51.278;22.550;2022-08-19T00:39:20;98899.72;;;23.18;69.26
72855;BME280;60991;51.278;22.550;2022-08-19T00:40:51;98900.06;;;23.17;69.20
72855;BME280;60991;51.278;22.550;2022-08-19T00:42:21;98908.97;;;23.17;69.53
72855;BME280;60991;51.278;22.550;2022-08-19T00:44:09;98908.50;;;23.15;69.08
72855;BME280;60991;51.278;22.550;2022-08-19T00:45:40;98912.34;;;23.14;69.07
72855;BME280;60991;51.278;22.550;2022-08-19T00:47:10;98912.34;;;23.14;69.37
72855;BME280;60991;51.278;22.550;2022-08-19T00:48:41;98917.28;;;23.12;69.39
72855;BME280;60991;51.278;22.550;2022-08-19T00:50:14;98919.53;;;23.10;69.53
72855;BME280;60991;51.278;22.550;2022-08-19T00:51:50;98918.75;;;23.09;69.59
72855;BME280;60991;51.278;22.550;2022-08-19T00:53:24;98919.84;;;23.08;69.73
72855;BME280;60991;51.278;22.550;2022-08-19T00:54:57;98921.78;;;23.08;69.75
72855;BME280;60991;51.278;22.550;2022-08-19T00:56:28;98920.66;;;23.09;69.75
72855;BME280;60991;51.278;22.550;2022-08-19T00:58:07;98922.91;;;23.07;69.85
72855;BME280;60991;51.278;22.550;2022-08-19T00:59:39;98921.63;;;23.04;69.81
72855;BME280;60991;51.278;22.550;2022-08-19T01:01:10;98922.44;;;23.05;69.83
72855;BME280;60991;51.278;22.550;2022-08-19T01:02:41;98916.56;;;23.03;69.74
72855;BME280;60991;51.278;22.550;2022-08-19T01:04:12;98927.38;;;23.03;69.69
72855;BME280;60991;51.278;22.550;2022-08-19T01:05:44;98913.06;;;23.02;69.92
72855;BME280;60991;51.278;22.550;2022-08-19T01:07:15;98914.97;;;23.02;69.96
72855;BME280;60991;51.278;22.550;2022-08-19T01:08:46;98911.47;;;23.01;69.74
72855;BME280;60991;51.278;22.550;2022-08-19T01:10:19;98911.81;;;23.00;70.04
72855;BME280;60991;51.278;22.550;2022-08-19T01:11:51;98907.84;;;22.97;70.12
72855;BME280;60991;51.278;22.550;2022-08-19T01:13:25;98912.47;;;22.97;69.69
72855;BME280;60991;51.278;22.550;2022-08-19T01:14:55;98915.03;;;22.93;70.07
72855;BME280;60991;51.278;22.550;2022-08-19T01:16:28;98913.00;;;22.90;70.04
72855;BME280;60991;51.278;22.550;2022-08-19T01:18:02;98911.59;;;22.84;70.12
72855;BME280;60991;51.278;22.550;2022-08-19T01:19:37;98916.44;;;22.78;70.35
72855;BME280;60991;51.278;22.550;2022-08-19T01:21:25;98921.06;;;22.78;70.44
72855;BME280;60991;51.278;22.550;2022-08-19T01:22:58;98925.69;;;22.77;70.78
72855;BME280;60991;51.278;22.550;2022-08-19T01:24:28;98919.47;;;22.77;70.71
72855;BME280;60991;51.278;22.550;2022-08-19T01:25:59;98922.19;;;22.77;70.42
72855;BME280;60991;51.278;22.550;2022-08-19T01:27:40;98922.19;;;22.77;70.36
72855;BME280;60991;51.278;22.550;2022-08-19T01:29:11;98912.44;;;22.76;70.67
72855;BME280;60991;51.278;22.550;2022-08-19T01:30:42;98920.25;;;22.77;70.58
72855;BME280;60991;51.278;22.550;2022-08-19T01:32:14;98912.94;;;22.78;70.86
72855;BME280;60991;51.278;22.550;2022-08-19T01:33:45;98913.72;;;22.78;70.49
72855;BME280;60991;51.278;22.550;2022-08-19T01:35:15;98910.53;;;22.76;70.31
72855;BME280;60991;51.278;22.550;2022-08-19T01:36:47;98907.81;;;22.76;70.41
72855;BME280;60991;51.278;22.550;2022-08-19T01:38:26;98914.34;;;22.75;70.26
72855;BME280;60991;51.278;22.550;2022-08-19T01:39:56;98913.56;;;22.75;70.59
72855;BME280;60991;51.278;22.550;2022-08-19T01:41:27;98918.97;;;22.75;70.76
72855;BME280;60991;51.278;22.550;2022-08-19T01:42:58;98922.78;;;22.74;70.84
72855;BME280;60991;51.278;22.550;2022-08-19T01:44:28;98914.69;;;22.74;70.77
72855;BME280;60991;51.278;22.550;2022-08-19T01:45:59;98908.00;;;22.71;70.80
72855;BME280;60991;51.278;22.550;2022-08-19T01:47:29;98912.94;;;22.69;70.75
72855;BME280;60991;51.278;22.550;2022-08-19T01:49:00;98915.19;;;22.67;71.00
72855;BME280;60991;51.278;22.550;2022-08-19T01:50:33;98914.28;;;22.63;71.00
72855;BME280;60991;51.278;22.550;2022-08-19T01:52:05;98917.31;;;22.62;71.01
72855;BME280;60991;51.278;22.550;2022-08-19T01:53:36;98919.22;;;22.61;70.92
72855;BME280;60991;51.278;22.550;2022-08-19T01:55:09;98916.53;;;22.61;71.08
72855;BME280;60991;51.278;22.550;2022-08-19T01:56:40;98923.06;;;22.60;70.83
72855;BME280;60991;51.278;22.550;2022-08-19T01:58:14;98916.53;;;22.61;70.71
72855;BME280;60991;51.278;22.550;2022-08-19T01:59:46;98919.88;;;22.58;70.87
72855;BME280;60991;51.278;22.550;2022-08-19T02:01:17;98918.63;;;22.56;70.94
72855;BME280;60991;51.278;22.550;2022-08-19T02:02:48;98919.59;;;22.51;71.04
72855;BME280;60991;51.278;22.550;2022-08-19T02:04:18;98923.28;;;22.46;71.46
72855;BME280;60991;51.278;22.550;2022-08-19T02:05:57;98923.63;;;22.45;71.31
72855;BME280;60991;51.278;22.550;2022-08-19T02:07:29;98922.81;;;22.44;71.64
72855;BME280;60991;51.278;22.550;2022-08-19T02:08:59;98920.91;;;22.45;71.13
72855;BME280;60991;51.278;22.550;2022-08-19T02:10:30;98920.56;;;22.46;71.51
72855;BME280;60991;51.278;22.550;2022-08-19T02:12:00;98919.44;;;22.48;71.12
72855;BME280;60991;51.278;22.550;2022-08-19T02:13:31;98919.44;;;22.48;70.94
72855;BME280;60991;51.278;22.550;2022-08-19T02:15:02;98921.34;;;22.47;71.32
72855;BME280;60991;51.278;22.550;2022-08-19T02:16:33;98917.84;;;22.46;71.49
72855;BME280;60991;51.278;22.550;2022-08-19T02:18:04;98918.66;;;22.47;71.55
72855;BME280;60991;51.278;22.550;2022-08-19T02:19:35;98919.78;;;22.46;71.48
72855;BME280;60991;51.278;22.550;2022-08-19T02:21:05;98920.56;;;22.46;71.34
72855;BME280;60991;51.278;22.550;2022-08-19T02:22:35;98912.44;;;22.46;71.30
72855;BME280;60991;51.278;22.550;2022-08-19T02:24:06;98915.16;;;22.46;71.48
72855;BME280;60991;51.278;22.550;2022-08-19T02:25:38;98907.03;;;22.46;71.29
72855;BME280;60991;51.278;22.550;2022-08-19T02:27:08;98905.44;;;22.45;71.36
72855;BME280;60991;51.278;22.550;2022-08-19T02:28:39;98908.50;;;22.44;71.73
72855;BME280;60991;51.278;22.550;2022-08-19T02:30:14;98906.47;;;22.41;71.37
72855;BME280;60991;51.278;22.550;2022-08-19T02:31:45;98904.06;;;22.39;71.63
72855;BME280;60991;51.278;22.550;2022-08-19T02:33:16;98904.88;;;22.40;71.43
72855;BME280;60991;51.278;22.550;2022-08-19T02:34:47;98905.97;;;22.39;71.63
72855;BME280;60991;51.278;22.550;2022-08-19T02:36:18;98909.47;;;22.39;71.34
72855;BME280;60991;51.278;22.550;2022-08-19T02:37:48;98909.34;;;22.36;71.45
72855;BME280;60991;51.278;22.550;2022-08-19T02:39:19;98908.41;;;22.32;71.95
72855;BME280;60991;51.278;22.550;2022-08-19T02:40:51;98912.06;;;22.27;72.01
72855;BME280;60991;51.278;22.550;2022-08-19T02:42:21;98910.03;;;22.24;71.81
72855;BME280;60991;51.278;22.550;2022-08-19T02:43:52;98900.34;;;22.23;72.00
72855;BME280;60991;51.278;22.550;2022-08-19T02:45:22;98898.44;;;22.24;72.25
72855;BME280;60991;51.278;22.550;2022-08-19T02:46:52;98901.13;;;22.24;71.97
72855;BME280;60991;51.278;22.550;2022-08-19T02:48:24;98897.31;;;22.25;71.90
72855;BME280;60991;51.278;22.550;2022-08-19T02:49:55;98896.53;;;22.24;72.26
72855;BME280;60991;51.278;22.550;2022-08-19T02:51:29;98900.34;;;22.23;72.23
72855;BME280;60991;51.278;22.550;2022-08-19T02:53:00;98895.72;;;22.24;72.16
72855;BME280;60991;51.278;22.550;2022-08-19T02:54:30;98897.66;;;22.23;72.33
72855;BME280;60991;51.278;22.550;2022-08-19T02:56:00;98901.13;;;22.24;71.99
72855;BME280;60991;51.278;22.550;2022-08-19T02:57:31;98902.25;;;22.23;72.35
72855;BME280;60991;51.278;22.550;2022-08-19T02:59:03;98904.16;;;22.22;72.12
72855;BME280;60991;51.278;22.550;2022-08-19T03:00:33;98909.56;;;22.22;72.04
72855;BME280;60991;51.278;22.550;2022-08-19T03:02:03;98908.47;;;22.23;72.28
72855;BME280;60991;51.278;22.550;2022-08-19T03:03:34;98910.38;;;22.23;72.22
72855;BME280;60991;51.278;22.550;2022-08-19T03:05:05;98903.38;;;22.22;71.93
72855;BME280;60991;51.278;22.550;2022-08-19T03:06:38;98912.28;;;22.22;72.19
72855;BME280;60991;51.278;22.550;2022-08-19T03:08:09;98908.00;;;22.21;72.47
72855;BME280;60991;51.278;22.550;2022-08-19T03:09:40;98904.97;;;22.23;72.27
72855;BME280;60991;51.278;22.550;2022-08-19T03:11:17;98910.03;;;22.24;72.17
72855;BME280;60991;51.278;22.550;2022-08-19T03:12:48;98904.16;;;22.22;72.24
72855;BME280;60991;51.278;22.550;2022-08-19T03:14:18;98903.38;;;22.22;72.02
72855;BME280;60991;51.278;22.550;2022-08-19T03:15:49;98900.66;;;22.22;72.24
72855;BME280;60991;51.278;22.550;2022-08-19T03:17:19;98892.56;;;22.22;72.10
72855;BME280;60991;51.278;22.550;2022-08-19T03:18:51;98895.59;;;22.20;71.94
72855;BME280;60991;51.278;22.550;2022-08-19T03:20:22;98899.41;;;22.19;72.08
72855;BME280;60991;51.278;22.550;2022-08-19T03:21:52;98899.41;;;22.19;72.33
72855;BME280;60991;51.278;22.550;2022-08-19T03:23:23;98902.91;;;22.20;72.26
72855;BME280;60991;51.278;22.550;2022-08-19T03:24:53;98910.22;;;22.19;71.95
72855;BME280;60991;51.278;22.550;2022-08-19T03:26:24;98909.44;;;22.19;72.17
72855;BME280;60991;51.278;22.550;2022-08-19T03:27:54;98913.56;;;22.16;72.23
72855;BME280;60991;51.278;22.550;2022-08-19T03:29:27;98907.38;;;22.16;72.24
72855;BME280;60991;51.278;22.550;2022-08-19T03:32:32;98903.88;;;22.15;72.04
72855;BME280;60991;51.278;22.550;2022-08-19T03:34:04;98910.88;;;22.16;72.47
72855;BME280;60991;51.278;22.550;2022-08-19T03:35:34;98910.88;;;22.16;72.22
72855;BME280;60991;51.278;22.550;2022-08-19T03:37:08;98912.78;;;22.16;72.51
72855;BME280;60991;51.278;22.550;2022-08-19T03:38:45;98906.56;;;22.15;72.44
72855;BME280;60991;51.278;22.550;2022-08-19T03:40:16;98913.56;;;22.16;72.70
72855;BME280;60991;51.278;22.550;2022-08-19T03:41:48;98912.78;;;22.16;72.50
72855;BME280;60991;51.278;22.550;2022-08-19T03:43:18;98913.09;;;22.14;72.12
72855;BME280;60991;51.278;22.550;2022-08-19T03:44:49;98917.72;;;22.14;72.57
72855;BME280;60991;51.278;22.550;2022-08-19T03:46:24;98911.50;;;22.13;72.33
72855;BME280;60991;51.278;22.550;2022-08-19T03:47:55;98921.22;;;22.14;72.56
72855;BME280;60991;51.278;22.550;2022-08-19T03:49:27;98919.63;;;22.13;72.27
72855;BME280;60991;51.278;22.550;2022-08-19T03:50:59;98910.72;;;22.13;72.70
72855;BME280;60991;51.278;22.550;2022-08-19T03:52:29;98916.13;;;22.13;72.56
72855;BME280;60991;51.278;22.550;2022-08-19T03:54:02;98915.81;;;22.14;72.45
72855;BME280;60991;51.278;22.550;2022-08-19T03:55:32;98922.78;;;22.15;72.48
72855;BME280;60991;51.278;22.550;2022-08-19T03:57:03;98916.13;;;22.13;72.34
72855;BME280;60991;51.278;22.550;2022-08-19T03:58:34;98922.31;;;22.13;72.41
72855;BME280;60991;51.278;22.550;2022-08-19T04:00:05;98912.63;;;22.12;72.40
72855;BME280;60991;51.278;22.550;2022-08-19T04:01:35;98915.31;;;22.12;72.47
72855;BME280;60991;51.278;22.550;2022-08-19T04:03:06;98910.25;;;22.10;72.48
72855;BME280;60991;51.278;22.550;2022-08-19T04:04:38;98909.13;;;22.11;72.37
72855;BME280;60991;51.278;22.550;2022-08-19T04:06:14;98917.25;;;22.11;72.49
72855;BME280;60991;51.278;22.550;2022-08-19T04:07:44;98917.25;;;22.11;72.46
72855;BME280;60991;51.278;22.550;2022-08-19T04:09:15;98915.66;;;22.10;72.38
72855;BME280;60991;51.278;22.550;2022-08-19T04:10:47;98917.25;;;22.11;72.60
72855;BME280;60991;51.278;22.550;2022-08-19T04:12:17;98916.44;;;22.11;72.33
72855;BME280;60991;51.278;22.550;2022-08-19T04:13:49;98915.66;;;22.10;72.49
72855;BME280;60991;51.278;22.550;2022-08-19T04:15:19;98921.84;;;22.11;72.64
72855;BME280;60991;51.278;22.550;2022-08-19T04:16:50;98920.25;;;22.10;72.54
72855;BME280;60991;51.278;22.550;2022-08-19T04:18:21;98917.13;;;22.08;72.43
72855;BME280;60991;51.278;22.550;2022-08-19T04:19:51;98912.84;;;22.07;72.38
72855;BME280;60991;51.278;22.550;2022-08-19T04:21:25;98919.03;;;22.07;72.68
72855;BME280;60991;51.278;22.550;2022-08-19T04:22:56;98916.31;;;22.07;72.44
72855;BME280;60991;51.278;22.550;2022-08-19T04:24:26;98913.94;;;22.06;72.72
72855;BME280;60991;51.278;22.550;2022-08-19T04:25:57;98918.88;;;22.04;72.67
72855;BME280;60991;51.278;22.550;2022-08-19T04:27:27;98918.09;;;22.03;72.72
72855;BME280;60991;51.278;22.550;2022-08-19T04:28:59;98910.78;;;22.04;72.61
72855;BME280;60991;51.278;22.550;2022-08-19T04:30:29;98912.34;;;22.05;72.59
72855;BME280;60991;51.278;22.550;2022-08-19T04:32:00;98920.16;;;22.06;72.52
72855;BME280;60991;51.278;22.550;2022-08-19T04:33:31;98917.13;;;22.08;72.38
72855;BME280;60991;51.278;22.550;2022-08-19T04:35:01;98922.53;;;22.08;72.59
72855;BME280;60991;51.278;22.550;2022-08-19T04:36:35;98919.66;;;22.04;72.25
72855;BME280;60991;51.278;22.550;2022-08-19T04:38:06;98926.66;;;22.05;72.48
72855;BME280;60991;51.278;22.550;2022-08-19T04:39:36;98930.47;;;22.04;72.75
72855;BME280;60991;51.278;22.550;2022-08-19T04:41:06;98934.31;;;22.03;72.72
72855;BME280;60991;51.278;22.550;2022-08-19T04:42:37;98933.97;;;22.05;72.85
72855;BME280;60991;51.278;22.550;2022-08-19T04:44:07;98934.78;;;22.05;72.65
72855;BME280;60991;51.278;22.550;2022-08-19T04:45:38;98931.75;;;22.07;72.67
72855;BME280;60991;51.278;22.550;2022-08-19T04:47:08;98929.84;;;22.07;72.46
72855;BME280;60991;51.278;22.550;2022-08-19T04:48:39;98927.13;;;22.07;72.35
72855;BME280;60991;51.278;22.550;2022-08-19T04:50:09;98934.91;;;22.09;72.31
72855;BME280;60991;51.278;22.550;2022-08-19T04:51:42;98931.88;;;22.10;72.36
72855;BME280;60991;51.278;22.550;2022-08-19T04:53:13;98920.25;;;22.10;72.59
72855;BME280;60991;51.278;22.550;2022-08-19T04:54:43;98930.75;;;22.11;72.35
72855;BME280;60991;51.278;22.550;2022-08-19T04:56:16;98929.63;;;22.13;72.65
72855;BME280;60991;51.278;22.550;2022-08-19T04:57:46;98934.72;;;22.14;72.62
72855;BME280;60991;51.278;22.550;2022-08-19T04:59:18;98923.13;;;22.14;72.46
72855;BME280;60991;51.278;22.550;2022-08-19T05:00:49;98923.13;;;22.14;72.79
72855;BME280;60991;51.278;22.550;2022-08-19T05:02:19;98923.13;;;22.14;72.72
72855;BME280;60991;51.278;22.550;2022-08-19T05:03:50;98920.09;;;22.15;72.46
72855;BME280;60991;51.278;22.550;2022-08-19T05:05:20;98911.66;;;22.17;72.65
72855;BME280;60991;51.278;22.550;2022-08-19T05:06:50;98918.19;;;22.16;72.38
72855;BME280;60991;51.278;22.550;2022-08-19T05:08:21;98911.66;;;22.17;72.49
72855;BME280;60991;51.278;22.550;2022-08-19T05:09:51;98911.81;;;22.20;72.39
72855;BME280;60991;51.278;22.550;2022-08-19T05:11:31;98918.00;;;22.21;72.66
72855;BME280;60991;51.278;22.550;2022-08-19T05:13:02;98915.31;;;22.21;72.52
72855;BME280;60991;51.278;22.550;2022-08-19T05:14:32;98912.28;;;22.22;72.74
72855;BME280;60991;51.278;22.550;2022-08-19T05:16:03;98911.97;;;22.24;72.58
72855;BME280;60991;51.278;22.550;2022-08-19T05:17:34;98922.44;;;22.25;72.73
72855;BME280;60991;51.278;22.550;2022-08-19T05:19:04;98921.34;;;22.26;72.69
72855;BME280;60991;51.278;22.550;2022-08-19T05:20:37;98920.19;;;22.27;72.71
72855;BME280;60991;51.278;22.550;2022-08-19T05:22:08;98919.53;;;22.30;72.69
72855;BME280;60991;51.278;22.550;2022-08-19T05:23:38;98918.41;;;22.31;72.68
72855;BME280;60991;51.278;22.550;2022-08-19T05:25:12;98927.81;;;22.34;72.65
72855;BME280;60991;51.278;22.550;2022-08-19T05:26:44;98921.28;;;22.35;72.47
72855;BME280;60991;51.278;22.550;2022-08-19T05:28:15;98921.75;;;22.37;72.68
72855;BME280;60991;51.278;22.550;2022-08-19T05:29:46;98924.13;;;22.38;72.67
72855;BME280;60991;51.278;22.550;2022-08-19T05:31:16;98919.19;;;22.40;72.49
72855;BME280;60991;51.278;22.550;2022-08-19T05:32:46;98922.34;;;22.42;72.90
72855;BME280;60991;51.278;22.550;2022-08-19T05:34:18;98916.16;;;22.42;72.71
72855;BME280;60991;51.278;22.550;2022-08-19T05:35:49;98915.03;;;22.43;72.82
72855;BME280;60991;51.278;22.550;2022-08-19T05:37:20;98914.34;;;22.46;72.72
72855;BME280;60991;51.278;22.550;2022-08-19T05:38:50;98912.13;;;22.48;72.92
72855;BME280;60991;51.278;22.550;2022-08-19T05:40:20;98917.69;;;22.52;72.77
72855;BME280;60991;51.278;22.550;2022-08-19T05:41:56;98916.25;;;22.54;73.00
72855;BME280;60991;51.278;22.550;2022-08-19T05:43:27;98911.63;;;22.55;72.77
72855;BME280;60991;51.278;22.550;2022-08-19T05:44:57;98911.28;;;22.56;73.01
72855;BME280;60991;51.278;22.550;2022-08-19T05:46:28;98916.06;;;22.59;73.15
72855;BME280;60991;51.278;22.550;2022-08-19T05:47:58;98919.56;;;22.60;73.17
72855;BME280;60991;51.278;22.550;2022-08-19T05:49:29;98930.84;;;22.62;73.48
72855;BME280;60991;51.278;22.550;2022-08-19T05:51:04;98929.72;;;22.63;73.35
72855;BME280;60991;51.278;22.550;2022-08-19T05:52:36;98938.28;;;22.65;73.12
72855;BME280;60991;51.278;22.550;2022-08-19T05:54:07;98942.56;;;22.66;73.29
72855;BME280;60991;51.278;22.550;2022-08-19T05:55:37;98953.06;;;22.67;73.25
72855;BME280;60991;51.278;22.550;2022-08-19T05:57:09;98948.91;;;22.70;73.21
72855;BME280;60991;51.278;22.550;2022-08-19T05:58:39;98955.59;;;22.72;73.16
72855;BME280;60991;51.278;22.550;2022-08-19T06:00:10;98950.97;;;22.73;73.06
72855;BME280;60991;51.278;22.550;2022-08-19T06:01:44;98954.94;;;22.75;72.80
72855;BME280;60991;51.278;22.550;2022-08-19T06:03:15;98952.25;;;22.75;73.50
72855;BME280;60991;51.278;22.550;2022-08-19T06:04:45;98958.16;;;22.77;73.01
72855;BME280;60991;51.278;22.550;2022-08-19T06:06:16;98953.22;;;22.79;73.13
72855;BME280;60991;51.278;22.550;2022-08-19T06:07:47;98957.94;;;22.83;73.08
72855;BME280;60991;51.278;22.550;2022-08-19T06:09:17;98953.78;;;22.85;72.97
72855;BME280;60991;51.278;22.550;2022-08-19T06:10:48;98951.22;;;22.89;73.04
72855;BME280;60991;51.278;22.550;2022-08-19T06:12:18;98961.06;;;22.93;72.84
72855;BME280;60991;51.278;22.550;2022-08-19T06:13:52;98952.28;;;22.96;73.11
72855;BME280;60991;51.278;22.550;2022-08-19T06:15:23;98958.63;;;23.00;72.64
72855;BME280;60991;51.278;22.550;2022-08-19T06:16:53;98951.41;;;23.04;73.00
72855;BME280;60991;51.278;22.550;2022-08-19T06:18:24;98950.75;;;23.07;72.83
72855;BME280;60991;51.278;22.550;2022-08-19T06:19:54;98953.59;;;23.11;72.89
72855;BME280;60991;51.278;22.550;2022-08-19T06:21:27;98956.78;;;23.13;72.75
72855;BME280;60991;51.278;22.550;2022-08-19T06:22:58;98963.91;;;23.18;72.62
72855;BME280;60991;51.278;22.550;2022-08-19T06:24:29;98960.53;;;23.21;72.77
72855;BME280;60991;51.278;22.550;2022-08-19T06:25:59;98972.63;;;23.23;72.33
72855;BME280;60991;51.278;22.550;2022-08-19T06:27:29;98968.47;;;23.26;72.35
72855;BME280;60991;51.278;22.550;2022-08-19T06:29:00;98972.09;;;23.30;72.82
72855;BME280;60991;51.278;22.550;2022-08-19T06:30:30;98972.22;;;23.33;72.05
72855;BME280;60991;51.278;22.550;2022-08-19T06:32:02;98975.06;;;23.37;72.34
72855;BME280;60991;51.278;22.550;2022-08-19T06:33:32;98974.06;;;23.41;72.29
72855;BME280;60991;51.278;22.550;2022-08-19T06:35:03;98969.91;;;23.44;71.79
72855;BME280;60991;51.278;22.550;2022-08-19T06:36:43;98972.75;;;23.47;71.84
72855;BME280;60991;51.278;22.550;2022-08-19T06:38:13;98973.69;;;23.52;72.35
72855;BME280;60991;51.278;22.550;2022-08-19T06:39:44;98970.75;;;23.57;72.00
72855;BME280;60991;51.278;22.550;2022-08-19T06:41:14;98975.53;;;23.60;71.75
72855;BME280;60991;51.278;22.550;2022-08-19T06:42:45;98978.38;;;23.63;71.91
72855;BME280;60991;51.278;22.550;2022-08-19T06:44:16;98967.97;;;23.65;71.55
72855;BME280;60991;51.278;22.550;2022-08-19T06:45:46;98973.19;;;23.70;71.49
72855;BME280;60991;51.278;22.550;2022-08-19T06:47:19;98965.19;;;23.74;71.47
72855;BME280;60991;51.278;22.550;2022-08-19T06:48:50;98959.09;;;23.77;70.98
72855;BME280;60991;51.278;22.550;2022-08-19T06:50:22;98962.72;;;23.81;70.73
72855;BME280;60991;51.278;22.550;2022-08-19T06:51:53;98962.06;;;23.84;71.04
72855;BME280;60991;51.278;22.550;2022-08-19T06:53:23;98959.00;;;23.86;70.80
72855;BME280;60991;51.278;22.550;2022-08-19T06:54:53;98958.00;;;23.90;70.63
72855;BME280;60991;51.278;22.550;2022-08-19T06:56:27;98956.97;;;23.95;70.70
72855;BME280;60991;51.278;22.550;2022-08-19T06:58:01;98957.09;;;23.98;70.78
72855;BME280;60991;51.278;22.550;2022-08-19T06:59:32;98947.97;;;24.03;70.88
72855;BME280;60991;51.278;22.550;2022-08-19T07:01:03;98948.09;;;24.06;70.75
72855;BME280;60991;51.278;22.550;2022-08-19T07:02:34;98947.09;;;24.11;70.70
72855;BME280;60991;51.278;22.550;2022-08-19T07:04:06;98946.06;;;24.15;70.88
72855;BME280;60991;51.278;22.550;2022-08-19T07:05:41;98945.38;;;24.18;70.53
72855;BME280;60991;51.278;22.550;2022-08-19T07:07:14;98946.31;;;24.23;70.21
72855;BME280;60991;51.278;22.550;2022-08-19T07:08:46;98951.09;;;24.26;69.98
72855;BME280;60991;51.278;22.550;2022-08-19T07:10:16;98949.63;;;24.28;70.30
72855;BME280;60991;51.278;22.550;2022-08-19T07:11:49;98947.78;;;24.32;69.91
72855;BME280;60991;51.278;22.550;2022-08-19T07:13:20;98952.31;;;24.40;69.94
72855;BME280;60991;51.278;22.550;2022-08-19T07:14:51;98952.44;;;24.44;69.89
72855;BME280;60991;51.278;22.550;2022-08-19T07:16:21;98958.00;;;24.47;70.36
72855;BME280;60991;51.278;22.550;2022-08-19T07:17:51;98948.81;;;24.52;70.15
72855;BME280;60991;51.278;22.550;2022-08-19T07:19:24;98953.56;;;24.55;70.16
72855;BME280;60991;51.278;22.550;2022-08-19T07:21:18;98957.19;;;24.59;70.38
72855;BME280;60991;51.278;22.550;2022-08-19T07:22:49;98958.44;;;24.62;69.78
72855;BME280;60991;51.278;22.550;2022-08-19T07:24:21;98963.19;;;24.65;69.75
72855;BME280;60991;51.278;22.550;2022-08-19T07:25:52;98965.22;;;24.68;69.81
72855;BME280;60991;51.278;22.550;2022-08-19T07:27:22;98970.41;;;24.73;69.76
72855;BME280;60991;51.278;22.550;2022-08-19T07:28:53;98974.81;;;24.77;69.78
72855;BME280;60991;51.278;22.550;2022-08-19T07:30:24;98971.88;;;24.82;69.24
72855;BME280;60991;51.278;22.550;2022-08-19T07:31:56;98965.41;;;24.87;68.92
72855;BME280;60991;51.278;22.550;2022-08-19T07:33:27;98966.28;;;24.91;68.85
72855;BME280;60991;51.278;22.550;2022-08-19T07:34:58;98964.53;;;24.95;68.40
72855;BME280;60991;51.278;22.550;2022-08-19T07:36:28;98964.63;;;24.99;68.47
72855;BME280;60991;51.278;22.550;2022-08-19T07:37:59;98964.75;;;25.02;68.09
72855;BME280;60991;51.278;22.550;2022-08-19T07:39:31;98960.63;;;25.08;68.10
72855;BME280;60991;51.278;22.550;2022-08-19T07:41:02;98970.47;;;25.13;68.03
72855;BME280;60991;51.278;22.550;2022-08-19T07:42:32;98971.38;;;25.17;67.04
72855;BME280;60991;51.278;22.550;2022-08-19T07:44:03;98974.53;;;25.19;66.72
72855;BME280;60991;51.278;22.550;2022-08-19T07:45:34;98975.84;;;25.25;66.02
72855;BME280;60991;51.278;22.550;2022-08-19T07:47:04;98976.75;;;25.29;66.22
72855;BME280;60991;51.278;22.550;2022-08-19T07:48:35;98976.41;;;25.31;66.07
72855;BME280;60991;51.278;22.550;2022-08-19T07:50:08;98977.66;;;25.33;66.06
72855;BME280;60991;51.278;22.550;2022-08-19T07:51:39;98971.66;;;25.40;65.55
72855;BME280;60991;51.278;22.550;2022-08-19T07:53:09;98976.38;;;25.43;65.53
72855;BME280;60991;51.278;22.550;2022-08-19T07:54:40;98975.22;;;25.44;65.67
72855;BME280;60991;51.278;22.550;2022-08-19T07:56:12;98975.34;;;25.47;65.59
72855;BME280;60991;51.278;22.550;2022-08-19T07:57:43;98974.19;;;25.48;65.22
72855;BME280;60991;51.278;22.550;2022-08-19T07:59:13;98966.16;;;25.52;65.53
72855;BME280;60991;51.278;22.550;2022-08-19T08:00:45;98968.19;;;25.55;65.03